RS-0008 weather

Sportski Aerodrom "Kozhirsko Polje"
KruĊĦevac, Rasina, Serbia

Public forecast

Using degrees Celsius for public forecast. Weather courtesy of forecast.io.

METAR (pilot weather report)

Closest report is Nis Airport, 26.3 nm (48.8 km) ESE. Retrieved 2019/06/16 21:30 UTC (25 minutes ago):

LYNI 162130Z VRB02KT CAVOK 24/17 Q1013 NOSIG

TAF (pilot weather forecast)

Closest forecast is Nis Airport, 26.3 nm (48.8 km) ESE. Retrieved 2019/06/16 18:25 UTC (4 hours ago):

TAF LYNI 161700Z 1618/1718 06006KT 9999 SCT040 TX30/1713Z TN17/1703Z BECMG 1706/1708 33012KT TEMPO 1709/1717 33015G30KT 5000 TSRA SCT030CB BKN040